Time;durP1;ratioP1;P1;durP2;ratioP2;P2;SDS_P1;SDS_P2;PMS_P1;PMS_P2;Temp;Humidity;BMP_temperature;BMP_pressure;BME280_temperature;BME280_humidity;BME280_pressure;Samples;Min_cycle;Max_cycle;Signal;HPM_P1;HPM_P2
2022/11/23 00:01:29;;;;;;;50.35;20.05;;;;;;;-1.62;100.00;98902.39;1776280;80;21018;-83
2022/11/23 00:04:00;;;;;;;48.60;20.30;;;;;;;-1.62;100.00;98907.77;1768603;80;21075;-82
2022/11/23 00:06:28;;;;;;;42.67;19.12;;;;;;;-1.64;100.00;98911.25;1764941;80;21051;-83
2022/11/23 00:08:55;;;;;;;43.17;18.27;;;;;;;-1.68;100.00;98906.09;1770374;80;21493;-83
2022/11/23 00:11:22;;;;;;;42.73;18.95;;;;;;;-1.69;100.00;98909.84;1765390;80;21434;-82
2022/11/23 00:13:49;;;;;;;42.53;18.40;;;;;;;-1.72;100.00;98904.97;1766049;80;20983;-83
2022/11/23 00:16:23;;;;;;;48.13;18.07;;;;;;;-1.75;100.00;98908.19;1772212;80;21176;-85
2022/11/23 00:18:53;;;;;;;48.60;20.05;;;;;;;-1.75;100.00;98907.66;1781564;80;21003;-86
2022/11/23 00:21:21;;;;;;;40.95;16.80;;;;;;;-1.76;100.00;98905.22;1782640;80;20932;-85
2022/11/23 00:23:47;;;;;;;45.08;18.67;;;;;;;-1.79;100.00;98908.41;1763508;80;20936;-86
2022/11/23 00:26:14;;;;;;;43.10;18.45;;;;;;;-1.82;100.00;98908.91;1771272;79;21475;-83
2022/11/23 00:28:41;;;;;;;43.10;19.02;;;;;;;-1.84;100.00;98909.69;1711253;83;21143;-83
2022/11/23 00:31:11;;;;;;;47.15;19.07;;;;;;;-1.87;100.00;98917.73;1748467;80;21427;-82
2022/11/23 00:33:38;;;;;;;43.52;18.50;;;;;;;-1.86;100.00;98926.61;1748879;81;20896;-83
2022/11/23 00:36:14;;;;;;;41.73;18.27;;;;;;;-1.85;100.00;98927.71;1748843;82;20983;-86
2022/11/23 00:38:42;;;;;;;42.27;17.80;;;;;;;-1.85;100.00;98924.20;1714785;83;20901;-85
2022/11/23 00:41:12;;;;;;;45.08;18.90;;;;;;;-1.90;100.00;98925.48;1716654;82;21792;-86
2022/11/23 00:43:39;;;;;;;46.85;18.70;;;;;;;-1.90;100.00;98930.34;1711160;83;20960;-87
2022/11/23 00:46:20;;;;;;;50.03;20.72;;;;;;;-1.88;100.00;98933.59;1712879;82;21431;-87
2022/11/23 00:48:49;;;;;;;47.25;19.62;;;;;;;-1.85;100.00;98936.31;1748864;80;20943;-86
2022/11/23 00:51:19;;;;;;;48.55;21.85;;;;;;;-1.83;100.00;98942.27;1747893;80;20916;-87
2022/11/23 00:53:45;;;;;;;50.78;20.30;;;;;;;-1.83;100.00;98944.95;1748192;80;21783;-87
2022/11/23 00:56:12;;;;;;;50.52;20.77;;;;;;;-1.83;100.00;98945.77;1748605;80;21014;-88
2022/11/23 00:58:39;;;;;;;51.18;21.27;;;;;;;-1.80;100.00;98939.07;1748300;81;20888;-85
2022/11/23 01:01:12;;;;;;;54.63;21.65;;;;;;;-1.78;100.00;98935.59;1716546;83;20921;-84
2022/11/23 01:03:46;;;;;;;51.63;20.80;;;;;;;-1.79;100.00;98932.63;1748770;80;20887;-84
2022/11/23 01:06:22;;;;;;;47.08;20.32;;;;;;;-1.79;100.00;98927.24;1748394;81;21304;-83
2022/11/23 01:09:04;;;;;;;48.10;19.82;;;;;;;-1.83;100.00;98925.59;1750993;81;21078;-84
2022/11/23 01:11:32;;;;;;;51.55;20.65;;;;;;;-1.83;100.00;98928.27;1748056;81;21062;-84
2022/11/23 01:14:01;;;;;;;45.43;19.65;;;;;;;-1.81;100.00;98937.44;1748587;80;21018;-85
2022/11/23 01:16:31;;;;;;;47.95;21.02;;;;;;;-1.80;100.00;98931.00;1748557;81;21002;-84
2022/11/23 01:19:01;;;;;;;56.40;22.00;;;;;;;-1.78;100.00;98931.56;1748992;81;21086;-85
2022/11/23 01:21:29;;;;;;;49.70;20.45;;;;;;;-1.77;100.00;98932.66;1748474;81;21020;-84
2022/11/23 01:23:57;;;;;;;47.17;19.42;;;;;;;-1.73;100.00;98932.94;1748471;81;20947;-85
2022/11/23 01:26:24;;;;;;;51.53;20.65;;;;;;;-1.74;100.00;98936.73;1748835;81;20964;-83
2022/11/23 01:28:50;;;;;;;50.88;20.25;;;;;;;-1.75;100.00;98937.26;1748622;81;20848;-84
2022/11/23 01:31:20;;;;;;;49.42;21.02;;;;;;;-1.71;100.00;98940.23;1748329;81;21017;-84
2022/11/23 01:33:47;;;;;;;44.67;18.92;;;;;;;-1.72;100.00;98943.98;1748736;81;20848;-84
2022/11/23 01:36:17;;;;;;;47.10;20.43;;;;;;;-1.75;100.00;98943.98;1720054;81;21022;-84
2022/11/23 01:38:46;;;;;;;46.13;19.50;;;;;;;-1.75;100.00;98947.20;1711521;83;20984;-84
2022/11/23 01:41:18;;;;;;;47.58;19.45;;;;;;;-1.74;100.00;98946.95;1722304;82;21133;-85
2022/11/23 01:43:45;;;;;;;49.67;19.30;;;;;;;-1.77;100.00;98954.19;1715036;81;21099;-84
2022/11/23 01:46:12;;;;;;;45.85;18.55;;;;;;;-1.80;100.00;98951.99;1748671;80;20928;-82
2022/11/23 01:48:44;;;;;;;38.17;17.42;;;;;;;-1.80;100.00;98945.80;1749218;80;20899;-83
2022/11/23 01:51:18;;;;;;;42.38;19.23;;;;;;;-1.80;100.00;98952.52;1745067;80;20927;-83
2022/11/23 01:53:46;;;;;;;42.60;17.73;;;;;;;-1.79;100.00;98952.80;1748151;80;21026;-83
2022/11/23 01:56:17;;;;;;;40.05;16.62;;;;;;;-1.79;100.00;98953.62;1718689;80;21830;-84
2022/11/23 01:58:49;;;;;;;39.35;16.80;;;;;;;-1.80;100.00;98952.52;1711419;83;20914;-85
2022/11/23 02:01:17;;;;;;;46.10;19.47;;;;;;;-1.82;100.00;98951.95;1720554;82;21427;-85
2022/11/23 02:03:43;;;;;;;45.78;20.57;;;;;;;-1.82;100.00;98958.16;1698944;81;20983;-85
2022/11/23 02:06:14;;;;;;;41.85;18.10;;;;;;;-1.82;100.00;98954.65;1748731;80;20972;-85
2022/11/23 02:08:41;;;;;;;45.25;19.05;;;;;;;-1.81;100.00;98958.97;1712375;81;21122;-84
2022/11/23 02:11:10;;;;;;;42.75;19.98;;;;;;;-1.80;100.00;98960.06;1716986;83;20935;-83
2022/11/23 02:13:37;;;;;;;42.98;18.95;;;;;;;-1.80;100.00;98956.03;1715099;82;20895;-84
2022/11/23 02:16:04;;;;;;;40.00;18.50;;;;;;;-1.82;100.00;98962.72;1748879;81;21549;-84
2022/11/23 02:18:33;;;;;;;42.33;17.35;;;;;;;-1.85;100.00;98961.34;1749009;81;21542;-84
2022/11/23 02:20:59;;;;;;;37.25;16.40;;;;;;;-1.88;100.00;98971.25;1707878;80;21155;-84
2022/11/23 02:23:41;;;;;;;43.33;18.02;;;;;;;-1.93;100.00;98959.61;1748169;81;20990;-85
2022/11/23 02:26:24;;;;;;;37.42;16.48;;;;;;;-1.95;100.00;98957.70;1748218;80;20903;-84
2022/11/23 02:29:11;;;;;;;42.30;18.20;;;;;;;-1.93;100.00;98959.08;1748412;80;21570;-84
2022/11/23 02:31:38;;;;;;;33.73;15.50;;;;;;;-1.91;100.00;98963.68;1748904;80;20887;-83
2022/11/23 02:34:05;;;;;;;35.90;15.93;;;;;;;-1.89;100.00;98970.16;1748623;81;21969;-83
2022/11/23 02:36:40;;;;;;;33.35;16.65;;;;;;;-1.91;100.00;98965.03;1748174;80;20979;-85
2022/11/23 02:39:23;;;;;;;38.58;17.23;;;;;;;-1.92;100.00;98978.20;1728242;82;20951;-84
2022/11/23 02:41:51;;;;;;;;;;;;;;;-1.91;100.00;98979.01;1750189;80;21066;-83
2022/11/23 02:44:38;;;;;;;37.45;15.70;;;;;;;-1.93;100.00;98977.91;1748554;80;20119;-84
2022/11/23 02:47:07;;;;;;;45.48;18.48;;;;;;;-1.94;100.00;98980.85;1748527;80;21629;-82
2022/11/23 02:49:35;;;;;;;46.90;19.77;;;;;;;-1.93;100.00;98974.41;1750310;80;21046;-82
2022/11/23 02:52:02;;;;;;;39.30;17.90;;;;;;;-1.96;100.00;98971.69;1748622;80;21030;-82
2022/11/23 02:54:29;;;;;;;46.75;20.20;;;;;;;-1.98;100.00;98970.30;1748496;80;21014;-82
2022/11/23 02:56:56;;;;;;;37.93;17.32;;;;;;;-2.00;100.00;98967.86;1748461;81;21042;-83
2022/11/23 02:59:24;;;;;;;37.50;17.85;;;;;;;-1.98;100.00;98967.61;1750598;81;21628;-82
2022/11/23 03:01:52;;;;;;;40.75;18.85;;;;;;;-1.97;100.00;98971.40;1747965;81;20994;-82
2022/11/23 03:04:19;;;;;;;39.42;17.85;;;;;;;-1.95;100.00;98971.16;1747822;80;20955;-82
2022/11/23 03:06:45;;;;;;;39.05;18.52;;;;;;;-1.94;100.00;98966.87;1748008;80;21022;-82
2022/11/23 03:09:12;;;;;;;43.28;19.07;;;;;;;-1.93;100.00;98967.69;1750192;80;21066;-83
2022/11/23 03:11:39;;;;;;;47.83;20.88;;;;;;;-1.91;100.00;98973.09;1749115;81;21720;-83
2022/11/23 03:14:05;;;;;;;47.35;20.00;;;;;;;-1.88;100.00;98977.16;1748552;81;21031;-83
2022/11/23 03:16:34;;;;;;;48.50;19.87;;;;;;;-1.88;100.00;98967.75;1747495;82;21002;-85
2022/11/23 03:19:01;;;;;;;41.98;18.73;;;;;;;-1.87;100.00;98974.76;1711575;83;21003;-85
2022/11/23 03:21:28;;;;;;;47.50;20.05;;;;;;;-1.87;100.00;98973.41;1731053;82;21012;-86
2022/11/23 03:23:55;;;;;;;40.35;18.60;;;;;;;-1.86;100.00;98971.00;1750992;80;21013;-85
2022/11/23 03:26:22;;;;;;;41.20;18.17;;;;;;;-1.87;100.00;98977.45;1748577;81;21046;-85
2022/11/23 03:28:50;;;;;;;42.45;18.67;;;;;;;-1.90;100.00;98983.33;1747491;81;20904;-85
2022/11/23 03:31:18;;;;;;;43.38;18.85;;;;;;;-1.90;100.00;98985.48;1748763;81;20932;-83
2022/11/23 03:33:45;;;;;;;40.43;18.00;;;;;;;-1.88;100.00;98978.52;1748576;81;21430;-81
2022/11/23 03:36:13;;;;;;;44.58;18.80;;;;;;;-1.88;100.00;98987.93;1748770;81;21752;-82
2022/11/23 03:38:41;;;;;;;44.27;19.42;;;;;;;-1.86;100.00;98979.89;1747288;81;20876;-84
2022/11/23 03:41:09;;;;;;;44.75;20.55;;;;;;;-1.87;100.00;98979.61;1742721;81;20990;-84
2022/11/23 03:43:38;;;;;;;39.75;18.15;;;;;;;-1.90;100.00;98978.77;1747483;80;21589;-82
2022/11/23 03:46:04;;;;;;;42.43;19.55;;;;;;;-1.89;100.00;98987.12;1748426;81;21117;-82
2022/11/23 03:48:32;;;;;;;42.80;18.52;;;;;;;-1.88;100.00;98991.97;1713465;82;21595;-81
2022/11/23 03:50:59;;;;;;;36.20;17.05;;;;;;;-1.89;100.00;98996.53;1748756;80;21569;-82
2022/11/23 03:53:26;;;;;;;31.70;15.40;;;;;;;-1.89;100.00;99001.91;1710964;83;21103;-82
2022/11/23 03:55:55;;;;;;;36.45;15.68;;;;;;;-1.90;100.00;98994.09;1748724;81;20947;-83
2022/11/23 03:58:23;;;;;;;37.33;16.93;;;;;;;-1.90;100.00;98990.05;1751404;81;21051;-82
2022/11/23 04:00:50;;;;;;;36.20;15.48;;;;;;;-1.94;100.00;98984.88;1748787;80;21155;-82
2022/11/23 04:03:18;;;;;;;35.15;16.50;;;;;;;-2.01;100.00;98983.19;1748659;81;20896;-82
2022/11/23 04:06:04;;;;;;;38.78;16.05;;;;;;;-2.07;100.00;98988.73;1680954;84;21019;-82
2022/11/23 04:08:34;;;;;;;37.33;17.32;;;;;;;-2.15;100.00;98985.94;1676171;83;21015;-83
2022/11/23 04:11:03;;;;;;;33.42;15.80;;;;;;;-2.21;100.00;98987.45;1705897;81;21703;-83
2022/11/23 04:13:36;;;;;;;35.05;16.23;;;;;;;-2.20;100.00;98991.23;1748332;80;21027;-82
2022/11/23 04:16:03;;;;;;;40.60;17.67;;;;;;;-2.20;100.00;98983.17;1748546;80;21014;-82
2022/11/23 04:18:31;;;;;;;39.20;16.87;;;;;;;-2.20;100.00;98979.14;1707610;82;20990;-83
2022/11/23 04:20:58;;;;;;;36.00;15.65;;;;;;;-2.18;100.00;98986.42;1761378;80;20983;-80
2022/11/23 04:23:25;;;;;;;35.25;16.75;;;;;;;-2.15;100.00;98981.91;1779285;79;20988;-81
2022/11/23 04:25:51;;;;;;;34.65;16.87;;;;;;;-2.15;100.00;98983.25;1779042;79;21463;-82
2022/11/23 04:28:18;;;;;;;37.03;16.55;;;;;;;-2.11;100.00;98983.56;1779497;78;20876;-84
2022/11/23 04:30:46;;;;;;;42.00;18.48;;;;;;;-2.06;100.00;98983.11;1779680;80;20932;-81
2022/11/23 04:33:13;;;;;;;44.08;17.25;;;;;;;-2.07;100.00;98980.14;1778735;79;21078;-81
2022/11/23 04:35:39;;;;;;;37.00;16.73;;;;;;;-2.08;100.00;98982.55;1736831;80;20891;-80
2022/11/23 04:38:07;;;;;;;34.60;16.70;;;;;;;-2.07;100.00;98973.41;1779345;78;21133;-85
2022/11/23 04:40:34;;;;;;;36.63;15.28;;;;;;;-2.05;100.00;98976.67;1781383;80;21002;-87
2022/11/23 04:43:02;;;;;;;28.17;13.55;;;;;;;-2.04;100.00;98973.45;1781354;80;20995;-87
2022/11/23 04:45:30;;;;;;;34.33;15.43;;;;;;;-2.05;100.00;98982.58;1779150;80;21079;-82
2022/11/23 04:47:59;;;;;;;26.73;13.40;;;;;;;-2.04;100.00;98985.55;1781036;78;21018;-83
2022/11/23 04:50:26;;;;;;;32.25;14.80;;;;;;;-2.02;100.00;98988.81;1746416;80;21812;-82
2022/11/23 04:52:54;;;;;;;32.25;14.78;;;;;;;-2.01;100.00;98984.53;1782276;78;21027;-85
2022/11/23 04:55:22;;;;;;;30.43;14.00;;;;;;;-1.96;100.00;98984.31;1779227;79;21510;-85
2022/11/23 04:57:51;;;;;;;27.50;12.65;;;;;;;-1.96;100.00;98987.82;1778795;80;20970;-85
2022/11/23 05:00:18;;;;;;;34.45;15.32;;;;;;;-1.98;100.00;98988.59;1780301;79;20995;-84
2022/11/23 05:02:47;;;;;;;34.20;14.75;;;;;;;-1.97;100.00;98992.10;1780021;80;21743;-84
2022/11/23 05:05:16;;;;;;;30.17;14.03;;;;;;;-2.02;100.00;98997.70;1778711;79;20999;-82
2022/11/23 05:07:43;;;;;;;36.53;15.72;;;;;;;-2.04;100.00;99003.85;1779377;80;20943;-78
2022/11/23 05:10:10;;;;;;;33.13;15.05;;;;;;;-2.10;100.00;98995.42;1779263;80;20983;-81
2022/11/23 05:12:38;;;;;;;34.38;15.85;;;;;;;-2.15;100.00;98995.34;1779905;78;20990;-83
2022/11/23 05:15:05;;;;;;;32.70;15.18;;;;;;;-2.16;100.00;99010.38;1779291;78;21797;-82
2022/11/23 05:17:35;;;;;;;33.00;15.48;;;;;;;-2.20;100.00;99009.25;1769209;80;20932;-86
2022/11/23 05:20:02;;;;;;;33.88;14.83;;;;;;;-2.25;100.00;99014.02;1778463;80;20991;-81
2022/11/23 05:22:30;;;;;;;35.78;15.45;;;;;;;-2.31;100.00;99014.99;1778753;79;21082;-85
2022/11/23 05:24:57;;;;;;;35.20;15.95;;;;;;;-2.39;100.00;99020.81;1779147;78;20998;-85
2022/11/23 05:27:24;;;;;;;34.83;15.25;;;;;;;-2.39;100.00;99031.03;1779478;80;21106;-85
2022/11/23 05:29:50;;;;;;;34.13;15.43;;;;;;;-2.39;100.00;99027.53;1746001;82;20998;-86
2022/11/23 05:32:17;;;;;;;31.12;14.50;;;;;;;-2.42;100.00;99030.17;1779831;79;20979;-86
2022/11/23 05:34:44;;;;;;;33.75;14.45;;;;;;;-2.44;100.00;99020.72;1779922;80;21490;-89
2022/11/23 05:37:12;;;;;;;30.02;13.32;;;;;;;-2.43;100.00;99025.04;1779585;79;21014;-88
2022/11/23 05:39:41;;;;;;;26.30;13.25;;;;;;;-2.43;100.00;99027.73;1778280;79;21806;-86
2022/11/23 05:42:08;;;;;;;31.00;14.65;;;;;;;-2.43;100.00;99027.73;1778904;78;21093;-87
2022/11/23 05:44:39;;;;;;;37.28;15.28;;;;;;;-2.41;100.00;99028.30;1779922;80;20975;-87
2022/11/23 05:47:09;;;;;;;33.92;14.83;;;;;;;-2.37;100.00;99037.51;1780067;80;21407;-86
2022/11/23 05:49:36;;;;;;;36.98;15.98;;;;;;;-2.31;100.00;99043.78;1779215;79;21399;-86
2022/11/23 05:52:03;;;;;;;38.33;17.05;;;;;;;-2.29;100.00;99045.14;1779812;80;21236;-85
2022/11/23 05:54:30;;;;;;;37.60;16.60;;;;;;;-2.29;100.00;99046.48;1740455;81;20932;-84
2022/11/23 05:56:59;;;;;;;32.35;15.23;;;;;;;-2.24;100.00;99047.09;1767825;80;21444;-79
2022/11/23 05:59:27;;;;;;;35.35;15.98;;;;;;;-2.21;100.00;99048.77;1716185;83;20977;-76
2022/11/23 06:01:56;;;;;;;36.45;17.20;;;;;;;-2.17;100.00;99055.28;1751862;80;21054;-83
2022/11/23 06:04:24;;;;;;;37.53;17.48;;;;;;;-2.17;100.00;99059.31;1785335;80;21663;-85
2022/11/23 06:06:57;;;;;;;35.03;16.87;;;;;;;-2.18;100.00;99061.72;1760229;80;20998;-76
2022/11/23 06:09:23;;;;;;;33.48;15.58;;;;;;;-2.21;100.00;99057.36;1760185;81;21041;-85
2022/11/23 06:11:51;;;;;;;36.50;17.07;;;;;;;-2.24;100.00;99055.16;1731966;81;21414;-79
2022/11/23 06:14:19;;;;;;;36.13;15.93;;;;;;;-2.28;100.00;99060.74;1759015;81;21388;-85
2022/11/23 06:16:47;;;;;;;34.83;15.38;;;;;;;-2.32;100.00;99060.97;1762835;81;21096;-75
2022/11/23 06:19:15;;;;;;;33.33;16.12;;;;;;;-2.37;100.00;99051.77;1757665;81;20947;-87
2022/11/23 06:21:41;;;;;;;29.80;13.98;;;;;;;-2.38;100.00;99043.95;1756706;80;20947;-74
2022/11/23 06:24:10;;;;;;;28.67;14.20;;;;;;;-2.38;100.00;99052.01;1758942;81;21556;-84
2022/11/23 06:26:37;;;;;;;35.78;16.35;;;;;;;-2.40;100.00;99050.09;1750682;81;20888;-84
2022/11/23 06:29:04;;;;;;;39.75;15.78;;;;;;;-2.39;100.00;99050.38;1756587;80;21089;-88
2022/11/23 06:31:32;;;;;;;38.88;16.85;;;;;;;-2.39;100.00;99053.88;1767956;80;20970;-83
2022/11/23 06:34:00;;;;;;;35.75;16.48;;;;;;;-2.35;100.00;99055.55;1782372;79;21014;-85
2022/11/23 06:36:28;;;;;;;40.48;17.52;;;;;;;-2.33;100.00;99056.13;1781461;79;20931;-82
2022/11/23 06:38:55;;;;;;;41.60;17.70;;;;;;;-2.34;100.00;99045.09;1757062;79;21062;-77
2022/11/23 06:41:23;;;;;;;37.17;16.70;;;;;;;-2.29;100.00;99050.52;1781582;80;21099;-79
2022/11/23 06:43:50;;;;;;;34.45;14.87;;;;;;;-2.25;100.00;99053.00;1781661;80;21106;-78
2022/11/23 06:46:24;;;;;;;31.07;13.85;;;;;;;-2.26;100.00;99055.41;1705208;83;20981;-75
2022/11/23 06:48:50;;;;;;;36.55;15.88;;;;;;;-2.32;100.00;99063.66;1781635;78;20845;-76
2022/11/23 06:51:17;;;;;;;36.77;16.57;;;;;;;-2.37;100.00;99060.36;1764060;81;21538;-76
2022/11/23 06:53:44;;;;;;;33.88;14.33;;;;;;;-2.40;100.00;99058.16;1781743;80;21121;-78
2022/11/23 06:56:12;;;;;;;30.82;14.00;;;;;;;-2.38;100.00;99058.73;1785594;80;20989;-77
2022/11/23 06:58:38;;;;;;;36.38;16.10;;;;;;;-2.40;100.00;99058.97;1779872;79;20919;-77
2022/11/23 07:01:08;;;;;;;28.75;13.43;;;;;;;-2.42;100.00;99051.67;1715161;80;21565;-76
2022/11/23 07:03:49;;;;;;;32.48;15.30;;;;;;;-2.42;100.00;99046.83;1778326;79;20925;-76
2022/11/23 07:06:20;;;;;;;30.33;14.63;;;;;;;-2.47;100.00;99044.06;1778808;80;21158;-77
2022/11/23 07:08:48;;;;;;;30.43;15.23;;;;;;;-2.48;100.00;99051.30;1779492;80;21182;-78
2022/11/23 07:11:16;;;;;;;32.05;13.83;;;;;;;-2.45;100.00;99037.38;1779713;80;21542;-79
2022/11/23 07:13:44;;;;;;;31.00;14.30;;;;;;;-2.35;100.00;99042.11;1780153;80;20979;-78
2022/11/23 07:16:11;;;;;;;27.35;13.83;;;;;;;-2.26;100.00;99050.56;1779104;78;21026;-77
2022/11/23 07:18:38;;;;;;;32.48;15.28;;;;;;;-2.22;100.00;99060.58;1779653;80;21106;-77
2022/11/23 07:21:06;;;;;;;37.23;17.45;;;;;;;-2.21;100.00;99068.12;1740944;82;21411;-79
2022/11/23 07:23:37;;;;;;;35.83;15.75;;;;;;;-2.21;100.00;99062.21;1783363;79;21501;-79
2022/11/23 07:26:02;;;;;;;29.85;14.58;;;;;;;-2.20;100.00;99072.44;1781979;78;20837;-79
2022/11/23 07:28:28;;;;;;;25.97;13.38;;;;;;;-2.25;100.00;99065.10;1778311;79;20955;-78
2022/11/23 07:30:56;;;;;;;29.15;13.18;;;;;;;-2.31;100.00;99072.02;1773710;80;21197;-79
2022/11/23 07:33:23;;;;;;;28.60;14.15;;;;;;;-2.37;100.00;99080.52;1779763;80;21554;-78
2022/11/23 07:35:50;;;;;;;33.55;14.87;;;;;;;-2.34;100.00;99071.44;1779736;80;21552;-76
2022/11/23 07:38:16;;;;;;;73.00;25.92;;;;;;;-2.29;100.00;99092.19;1768568;80;21576;-77
2022/11/23 07:40:43;;;;;;;41.65;18.00;;;;;;;-2.24;100.00;99090.94;1773653;80;21042;-79
2022/11/23 07:43:11;;;;;;;32.80;14.80;;;;;;;-2.24;100.00;99086.90;1750459;80;21824;-80
2022/11/23 07:45:39;;;;;;;32.63;15.23;;;;;;;-2.10;100.00;99082.02;1781035;78;21613;-78
2022/11/23 07:48:07;;;;;;;31.30;14.70;;;;;;;-1.95;100.00;99073.38;1775613;80;21067;-76
2022/11/23 07:50:36;;;;;;;29.77;14.83;;;;;;;-2.00;100.00;99077.61;1734523;80;21086;-74
2022/11/23 07:53:04;;;;;;;38.08;16.35;;;;;;;-2.04;100.00;99081.04;1766165;79;20986;-75
2022/11/23 07:55:32;;;;;;;36.33;16.23;;;;;;;-2.06;100.00;99089.88;1763805;80;21153;-76
2022/11/23 07:57:59;;;;;;;37.30;16.67;;;;;;;-2.06;100.00;99083.97;1749172;81;21553;-87
2022/11/23 08:00:28;;;;;;;37.40;16.93;;;;;;;-2.03;100.00;99092.89;1778776;79;20896;-87
2022/11/23 08:02:57;;;;;;;37.17;17.07;;;;;;;-1.98;100.00;99104.27;1779639;80;21596;-78
2022/11/23 08:05:25;;;;;;;36.20;16.30;;;;;;;-1.92;100.00;99106.52;1778677;78;20999;-79
2022/11/23 08:07:58;;;;;;;36.60;15.85;;;;;;;-1.88;100.00;99115.19;1779380;80;21736;-79
2022/11/23 08:10:27;;;;;;;33.30;15.05;;;;;;;-1.85;100.00;99109.85;1779249;78;20991;-77
2022/11/23 08:12:58;;;;;;;32.98;15.40;;;;;;;-1.82;100.00;99103.98;1745773;80;21058;-77
2022/11/23 08:15:29;;;;;;;40.88;15.28;;;;;;;-1.80;100.00;99097.83;1744738;82;20998;-82
2022/11/23 08:17:57;;;;;;;40.15;17.27;;;;;;;-1.80;100.00;99095.13;1757938;80;20912;-79
2022/11/23 08:26:36;;;;;;;47.60;19.62;;;;;;;-1.86;100.00;99096.93;1693071;78;20991;-82
2022/11/23 08:29:06;;;;;;;47.05;20.05;;;;;;;-1.91;100.00;99096.03;1668253;84;20939;-83
2022/11/23 08:31:35;;;;;;;40.78;19.00;;;;;;;-1.91;100.00;99087.44;1666318;84;21032;-77
2022/11/23 08:34:02;;;;;;;38.55;16.42;;;;;;;-1.88;100.00;99082.09;1691721;84;22144;-77
2022/11/23 08:36:28;;;;;;;41.28;15.68;;;;;;;-1.86;100.00;99077.28;1686670;84;20935;-71
2022/11/23 08:38:55;;;;;;;48.13;18.95;;;;;;;-1.87;100.00;99079.69;1685419;83;21037;-79
2022/11/23 08:41:22;;;;;;;39.58;16.12;;;;;;;-1.84;100.00;99075.16;1686947;84;20946;-78
2022/11/23 08:43:49;;;;;;;41.98;18.20;;;;;;;-1.79;100.00;99083.31;1692607;84;21028;-82
2022/11/23 08:46:16;;;;;;;37.85;15.28;;;;;;;-1.72;100.00;99085.27;1692846;84;21551;-79
2022/11/23 08:48:45;;;;;;;46.63;19.65;;;;;;;-1.65;100.00;99083.22;1691553;83;21010;-85
2022/11/23 08:51:12;;;;;;;47.43;19.80;;;;;;;-1.59;100.00;99082.77;1690197;84;21200;-74
2022/11/23 08:53:39;;;;;;;43.98;19.80;;;;;;;-1.55;100.00;99080.67;1685275;84;21651;-77
2022/11/23 08:56:06;;;;;;;45.80;18.25;;;;;;;-1.54;100.00;99086.34;1689602;84;21105;-81
2022/11/23 08:58:33;;;;;;;46.68;17.60;;;;;;;-1.51;100.00;99079.11;1688574;83;21804;-88
2022/11/23 09:01:00;;;;;;;40.67;17.82;;;;;;;-1.44;100.00;99079.75;1685395;83;20967;-76
2022/11/23 09:03:26;;;;;;;39.48;18.37;;;;;;;-1.38;100.00;99082.80;1689873;84;20990;-77
2022/11/23 09:06:00;;;;;;;42.38;18.15;;;;;;;-1.35;100.00;99072.06;1678925;84;20912;-70
2022/11/23 09:08:28;;;;;;;43.45;18.75;;;;;;;-1.31;100.00;99073.19;1684546;84;21026;-78
2022/11/23 09:11:01;;;;;;;41.30;16.87;;;;;;;-1.26;100.00;99063.02;1688498;84;21117;-80
2022/11/23 09:13:28;;;;;;;54.10;19.25;;;;;;;-1.25;100.00;99071.37;1682131;83;21068;-72
2022/11/23 09:15:59;;;;;;;47.83;18.62;;;;;;;-1.23;100.00;99067.90;1687784;84;21014;-71
2022/11/23 09:18:27;;;;;;;40.65;16.35;;;;;;;-1.23;100.00;99061.98;1678717;83;21023;-72
2022/11/23 09:20:53;;;;;;;51.18;17.90;;;;;;;-1.23;100.00;99064.67;1678667;82;21034;-76
2022/11/23 09:23:20;;;;;;;51.60;19.17;;;;;;;-1.24;100.00;99057.66;1679395;84;21026;-77
2022/11/23 09:25:48;;;;;;;45.05;17.73;;;;;;;-1.22;100.00;99057.41;1684152;84;21461;-74
2022/11/23 09:28:18;;;;;;;47.65;18.92;;;;;;;-1.21;100.00;99053.65;1673935;83;20918;-76
2022/11/23 09:30:48;;;;;;;45.85;17.48;;;;;;;-1.25;100.00;99049.30;1673777;83;21080;-76
2022/11/23 09:33:14;;;;;;;45.75;19.27;;;;;;;-1.28;100.00;99048.98;1675995;83;20973;-76
2022/11/23 09:35:41;;;;;;;43.08;17.90;;;;;;;-1.25;100.00;99053.87;1684625;83;21089;-91
2022/11/23 09:38:07;;;;;;;47.58;19.98;;;;;;;-1.26;100.00;99045.50;1669876;83;20934;-79
2022/11/23 09:40:37;;;;;;;53.70;20.27;;;;;;;-1.27;100.00;99046.57;1677431;83;20960;-73
2022/11/23 09:43:43;;;;;;;52.20;20.17;;;;;;;-1.31;100.00;99039.52;1681945;83;21039;-86
2022/11/23 09:46:42;;;;;;;44.30;17.02;;;;;;;-1.31;100.00;99039.52;1676183;83;20914;-74
2022/11/23 09:49:15;;;;;;;50.75;18.95;;;;;;;-1.28;100.00;99040.91;1651365;84;21263;-73
2022/11/23 09:51:43;;;;;;;95.35;32.98;;;;;;;-1.26;100.00;99041.47;1682547;83;21001;-83
2022/11/23 09:54:31;;;;;;;605.27;214.60;;;;;;;-1.26;100.00;99045.50;1680376;84;21420;-85
2022/11/23 09:56:58;;;;;;;225.43;81.08;;;;;;;-1.23;100.00;99038.27;1685986;83;21570;-84
2022/11/23 09:59:43;;;;;;;75.08;31.02;;;;;;;-1.21;100.00;99032.10;1678026;84;21095;-78
2022/11/23 10:02:23;;;;;;;65.67;23.83;;;;;;;-1.17;100.00;99025.14;1682333;83;21610;-75
2022/11/23 10:04:54;;;;;;;56.73;20.60;;;;;;;-1.10;100.00;99023.86;1660895;85;20964;-84
2022/11/23 10:07:32;;;;;;;57.20;20.88;;;;;;;-1.05;100.00;99021.22;1662040;85;21019;-75
2022/11/23 10:10:40;;;;;;;44.13;16.65;;;;;;;-1.08;100.00;99026.30;1661672;85;20912;-71
2022/11/23 10:13:43;;;;;;;59.30;22.60;;;;;;;-1.13;100.00;99024.36;1659389;85;21152;-69
2022/11/23 10:16:21;;;;;;;47.10;17.02;;;;;;;-1.20;100.00;99027.00;1657190;84;21793;-70
2022/11/23 10:19:15;;;;;;;47.60;16.90;;;;;;;-1.21;100.00;99018.10;1663296;86;21518;-68
2022/11/23 10:22:03;;;;;;;47.35;15.83;;;;;;;-1.21;100.00;99019.45;1663187;86;20928;-68
2022/11/23 10:24:35;;;;;;;38.78;14.53;;;;;;;-1.19;100.00;99020.55;1660845;86;20981;-71
2022/11/23 10:27:02;;;;;;;53.45;20.20;;;;;;;-1.19;100.00;99020.02;1680700;83;20960;-72
2022/11/23 10:29:34;;;;;;;48.10;20.02;;;;;;;-1.21;100.00;99015.94;1650385;85;21246;-69
2022/11/23 10:32:01;;;;;;;47.83;17.90;;;;;;;-1.24;100.00;99009.18;1675501;83;20937;-73
2022/11/23 10:34:48;;;;;;;52.10;19.57;;;;;;;-1.21;100.00;98998.44;1674155;83;21002;-71
2022/11/23 10:37:15;;;;;;;130.60;30.32;;;;;;;-1.18;100.00;98990.66;1683954;83;21548;-70
2022/11/23 10:39:42;;;;;;;56.25;22.40;;;;;;;-1.16;100.00;98995.80;1704129;82;20988;-75
2022/11/23 10:42:36;;;;;;;60.63;22.10;;;;;;;-1.15;100.00;99003.59;1681719;83;21827;-68
2022/11/23 10:45:04;;;;;;;98.33;41.13;;;;;;;-1.11;100.00;99011.45;1680289;83;20917;-73
2022/11/23 10:47:43;;;;;;;77.22;33.92;;;;;;;-1.10;100.00;99017.66;1686442;83;21452;-75
2022/11/23 10:50:28;;;;;;;79.22;32.10;;;;;;;-1.08;100.00;99020.38;1650143;84;21337;-73
2022/11/23 10:53:02;;;;;;;221.97;81.25;;;;;;;-1.05;100.00;99009.09;1691432;84;20999;-72
2022/11/23 10:55:30;;;;;;;122.70;55.80;;;;;;;-1.09;100.00;99011.20;1681829;84;21787;-74
2022/11/23 10:57:58;;;;;;;102.00;41.23;;;;;;;-1.11;100.00;99013.33;1683506;84;20958;-70
2022/11/23 11:00:26;;;;;;;83.67;34.35;;;;;;;-1.11;100.00;99011.98;1682581;83;20946;-73
2022/11/23 11:02:55;;;;;;;71.50;28.32;;;;;;;-1.19;100.00;99003.85;1682983;84;20946;-70
2022/11/23 11:05:36;;;;;;;63.65;25.50;;;;;;;-1.20;100.00;99004.11;1685036;84;21538;-70
2022/11/23 11:08:19;;;;;;;76.50;28.40;;;;;;;-1.20;100.00;98990.64;1681289;84;21835;-70
2022/11/23 11:11:01;;;;;;;70.32;23.35;;;;;;;-1.22;100.00;98986.85;1681179;83;21015;-69
2022/11/23 11:13:41;;;;;;;56.77;20.75;;;;;;;-1.28;100.00;98989.20;1680731;83;21101;-74
2022/11/23 11:16:35;;;;;;;68.25;27.22;;;;;;;-1.32;100.00;98989.42;1655607;84;20982;-69
2022/11/23 11:19:30;;;;;;;59.93;19.45;;;;;;;-1.36;100.00;98993.16;1678210;84;21705;-74
2022/11/23 11:21:59;;;;;;;65.17;21.60;;;;;;;-1.43;100.00;98989.84;1683610;84;22102;-73
2022/11/23 11:24:40;;;;;;;58.00;21.68;;;;;;;-1.43;100.00;98989.02;1653681;84;21011;-72
2022/11/23 11:27:21;;;;;;;64.62;22.93;;;;;;;-1.38;100.00;98989.08;1665566;83;21623;-70
2022/11/23 11:29:52;;;;;;;67.05;23.32;;;;;;;-1.35;100.00;98999.35;1689820;84;21064;-69